createdAt,value
2023-04-18T00:02:11.036Z,99445.20
2023-04-18T00:04:38.931Z,99445.40
2023-04-18T00:07:06.968Z,99446.60
2023-04-18T00:09:34.715Z,99443.40
2023-04-18T00:12:04.175Z,99443.60
2023-04-18T00:14:34.144Z,99442.80
2023-04-18T00:17:02.541Z,99441.80
2023-04-18T00:19:30.245Z,99435.40
2023-04-18T00:21:58.036Z,99434.60
2023-04-18T00:24:25.792Z,99439.00
2023-04-18T00:26:53.443Z,99435.40
2023-04-18T00:29:21.036Z,99441.60
2023-04-18T00:31:48.694Z,99440.20
2023-04-18T00:34:16.295Z,99445.40
2023-04-18T00:36:43.928Z,99444.20
2023-04-18T00:39:11.578Z,99442.20
2023-04-18T00:41:39.200Z,99439.60
2023-04-18T00:44:06.828Z,99441.00
2023-04-18T00:46:34.520Z,99438.60
2023-04-18T00:49:02.493Z,99440.20
2023-04-18T00:51:30.638Z,99435.20
2023-04-18T00:53:58.675Z,99430.60
2023-04-18T00:56:26.903Z,99431.20
2023-04-18T00:58:54.651Z,99429.80
2023-04-18T01:01:22.503Z,99432.60
2023-04-18T01:03:50.370Z,99436.20
2023-04-18T01:06:18.653Z,99430.80
2023-04-18T01:08:46.707Z,99424.80
2023-04-18T01:11:14.383Z,99430.60
2023-04-18T01:13:42.110Z,99423.80
2023-04-18T01:16:09.806Z,99427.80
2023-04-18T01:18:40.224Z,99427.80
2023-04-18T01:21:08.352Z,99431.40
2023-04-18T01:23:36.436Z,99433.40
2023-04-18T01:26:04.222Z,99430.80
2023-04-18T01:28:37.346Z,99431.60
2023-04-18T01:31:05.406Z,99432.00
2023-04-18T01:33:33.151Z,99432.00
2023-04-18T01:36:00.813Z,99435.60
2023-04-18T01:38:28.487Z,99435.20
2023-04-18T01:40:56.694Z,99440.80
2023-04-18T01:43:24.342Z,99431.60
2023-04-18T01:45:51.951Z,99432.00
2023-04-18T01:48:19.652Z,99437.20
2023-04-18T01:50:47.402Z,99431.80
2023-04-18T01:53:15.046Z,99434.60
2023-04-18T01:55:42.746Z,99436.00
2023-04-18T01:58:10.391Z,99439.20
2023-04-18T02:00:38.108Z,99436.60
2023-04-18T02:03:05.828Z,99430.20
2023-04-18T02:05:33.595Z,99430.60
2023-04-18T02:08:01.354Z,99431.80
2023-04-18T02:10:28.966Z,99430.60
2023-04-18T02:12:56.663Z,99436.00
2023-04-18T02:15:24.873Z,99433.20
2023-04-18T02:17:53.459Z,99434.20
2023-04-18T02:20:21.576Z,99431.60
2023-04-18T02:22:49.188Z,99433.00
2023-04-18T02:25:16.825Z,99429.60
2023-04-18T02:27:45.180Z,99430.20
2023-04-18T02:30:13.200Z,99434.40
2023-04-18T02:32:40.948Z,99431.20
2023-04-18T02:35:08.903Z,99430.80
2023-04-18T02:37:36.656Z,99437.20
2023-04-18T02:40:05.157Z,99433.20
2023-04-18T02:42:33.278Z,99433.60
2023-04-18T02:45:00.932Z,99432.80
2023-04-18T02:47:29.476Z,99434.20
2023-04-18T02:49:58.178Z,99434.20
2023-04-18T02:52:26.211Z,99433.00
2023-04-18T02:54:53.892Z,99426.80
2023-04-18T02:57:21.557Z,99435.80
2023-04-18T02:59:49.272Z,99433.60
2023-04-18T03:02:17.028Z,99431.20
2023-04-18T03:04:44.746Z,99428.20
2023-04-18T03:07:12.372Z,99431.20
2023-04-18T03:09:40.116Z,99428.00
2023-04-18T03:12:07.836Z,99433.60
2023-04-18T03:14:35.798Z,99433.40
2023-04-18T03:17:04.264Z,99438.00
2023-04-18T03:19:32.158Z,99429.20
2023-04-18T03:21:59.847Z,99430.00
2023-04-18T03:24:27.497Z,99426.80
2023-04-18T03:26:55.259Z,99433.60
2023-04-18T03:29:23.255Z,99437.80
2023-04-18T03:31:50.971Z,99439.40
2023-04-18T03:34:18.605Z,99433.40
2023-04-18T03:36:47.957Z,99432.20
2023-04-18T03:39:16.172Z,99434.80
2023-04-18T03:41:43.796Z,99443.00
2023-04-18T03:44:11.820Z,99447.80
2023-04-18T03:46:39.897Z,99449.60
2023-04-18T03:49:07.574Z,99455.80
2023-04-18T03:51:44.347Z,99455.80
2023-04-18T03:54:12.544Z,99452.60
2023-04-18T03:56:41.523Z,99460.00
2023-04-18T03:59:11.448Z,99464.20
2023-04-18T04:01:39.117Z,99465.20
2023-04-18T04:04:09.216Z,99473.40
2023-04-18T04:06:37.802Z,99471.00
2023-04-18T04:09:05.528Z,99475.80
2023-04-18T04:11:33.383Z,99475.40
2023-04-18T04:14:01.165Z,99478.20
2023-04-18T04:16:29.002Z,99485.80
2023-04-18T04:18:56.684Z,99493.20
2023-04-18T04:21:24.441Z,99491.40
2023-04-18T04:23:52.082Z,99492.00
2023-04-18T04:26:19.736Z,99491.80
2023-04-18T04:28:47.476Z,99493.80
2023-04-18T04:31:16.352Z,99499.60
2023-04-18T04:33:44.917Z,99501.60
2023-04-18T04:36:16.674Z,99505.60
2023-04-18T04:38:45.891Z,99507.80
2023-04-18T04:41:13.724Z,99505.20
2023-04-18T04:43:42.869Z,99514.20
2023-04-18T04:46:13.626Z,99509.60
2023-04-18T04:48:42.354Z,99512.40
2023-04-18T04:51:10.036Z,99511.80
2023-04-18T04:53:37.925Z,99510.60
2023-04-18T04:56:06.105Z,99513.80
2023-04-18T04:58:33.751Z,99517.80
2023-04-18T05:01:01.435Z,99517.60
2023-04-18T05:03:29.572Z,99526.00
2023-04-18T05:05:57.685Z,99529.20
2023-04-18T05:08:26.273Z,99527.40
2023-04-18T05:10:55.246Z,99527.00
2023-04-18T05:13:22.981Z,99532.00
2023-04-18T05:15:52.036Z,99529.60
2023-04-18T05:18:20.782Z,99533.40
2023-04-18T05:20:48.507Z,99533.60
2023-04-18T05:23:16.286Z,99533.00
2023-04-18T05:25:44.045Z,99528.20
2023-04-18T05:28:11.709Z,99533.40
2023-04-18T05:30:40.299Z,99536.00
2023-04-18T05:33:08.084Z,99538.60
2023-04-18T05:35:36.342Z,99547.40
2023-04-18T05:38:04.146Z,99548.20
2023-04-18T05:40:31.807Z,99543.20
2023-04-18T05:43:00.940Z,99547.80
2023-04-18T05:45:28.700Z,99543.80
2023-04-18T05:47:57.410Z,99540.20
2023-04-18T05:50:25.098Z,99545.00
2023-04-18T05:52:52.798Z,99544.80
2023-04-18T05:55:20.684Z,99546.20
2023-04-18T05:57:48.552Z,99552.40
2023-04-18T06:00:17.170Z,99548.80
2023-04-18T06:02:44.971Z,99546.80
2023-04-18T06:05:13.476Z,99551.80
2023-04-18T06:07:41.607Z,99550.20
2023-04-18T06:10:13.307Z,99552.20
2023-04-18T06:12:42.237Z,99555.00
2023-04-18T06:15:11.389Z,99553.80
2023-04-18T06:17:39.636Z,99554.80
2023-04-18T06:20:07.990Z,99558.00
2023-04-18T06:22:35.782Z,99557.60
2023-04-18T06:25:04.172Z,99555.60
2023-04-18T06:27:32.227Z,99564.60
2023-04-18T06:30:00.030Z,99569.80
2023-04-18T06:32:27.934Z,99574.80
2023-04-18T06:34:55.781Z,99571.00
2023-04-18T06:37:24.117Z,99583.60
2023-04-18T06:39:51.771Z,99586.40
2023-04-18T06:42:22.089Z,99579.80
2023-04-18T06:44:50.622Z,99582.60
2023-04-18T06:47:18.487Z,99588.00
2023-04-18T06:49:46.147Z,99582.60
2023-04-18T06:52:13.821Z,99575.00
2023-04-18T06:54:41.809Z,99578.40
2023-04-18T06:57:09.511Z,99583.00
2023-04-18T06:59:37.573Z,99579.60
2023-04-18T07:02:05.348Z,99579.80
2023-04-18T07:04:33.112Z,99582.40
2023-04-18T07:07:01.929Z,99584.40
2023-04-18T07:09:29.753Z,99581.20
2023-04-18T07:11:57.617Z,99579.80
2023-04-18T07:14:25.741Z,99582.20
2023-04-18T07:16:53.506Z,99581.60
2023-04-18T07:19:21.147Z,99585.80
2023-04-18T07:21:48.833Z,99586.00
2023-04-18T07:24:16.679Z,99587.00
2023-04-18T07:26:44.608Z,99589.00
2023-04-18T07:29:12.227Z,99590.00
2023-04-18T07:31:39.896Z,99584.60
2023-04-18T07:34:09.029Z,99580.20
2023-04-18T07:36:37.111Z,99587.20
2023-04-18T07:39:04.736Z,99584.60
2023-04-18T07:41:33.520Z,99588.20
2023-04-18T07:44:02.413Z,99593.20
2023-04-18T07:46:32.374Z,99595.40
2023-04-18T07:49:02.407Z,99592.40
2023-04-18T07:51:33.310Z,99586.40
2023-04-18T07:54:01.202Z,99589.40
2023-04-18T07:56:28.933Z,99589.80
2023-04-18T07:58:56.660Z,99589.40
2023-04-18T08:01:27.087Z,99594.40
2023-04-18T08:03:56.629Z,99594.40
2023-04-18T08:06:24.511Z,99590.60
2023-04-18T08:08:52.459Z,99588.80
2023-04-18T08:11:20.258Z,99581.60
2023-04-18T08:13:47.912Z,99585.40
2023-04-18T08:16:17.446Z,99585.20
2023-04-18T08:18:45.486Z,99587.60
2023-04-18T08:21:13.208Z,99584.40
2023-04-18T08:23:41.014Z,99586.80
2023-04-18T08:26:08.674Z,99582.80
2023-04-18T08:28:36.419Z,99583.60
2023-04-18T08:31:04.230Z,99586.60
2023-04-18T08:33:31.870Z,99585.00
2023-04-18T08:35:59.622Z,99582.60
2023-04-18T08:38:27.465Z,99590.60
2023-04-18T08:40:55.103Z,99588.00
2023-04-18T08:43:22.960Z,99590.00
2023-04-18T08:45:52.388Z,99593.20
2023-04-18T08:48:20.013Z,99605.20
2023-04-18T08:50:47.718Z,99609.20
2023-04-18T08:53:17.864Z,99605.20
2023-04-18T08:55:47.719Z,99605.20
2023-04-18T08:58:22.747Z,99608.60
2023-04-18T09:00:54.710Z,99605.40
2023-04-18T09:03:44.225Z,99606.00
2023-04-18T09:06:19.076Z,99605.40
2023-04-18T09:09:04.196Z,99608.20
2023-04-18T09:11:34.443Z,99603.60
2023-04-18T09:14:02.592Z,99608.60
2023-04-18T09:16:50.626Z,99602.20
2023-04-18T09:19:18.793Z,99607.20
2023-04-18T09:21:48.987Z,99604.80
2023-04-18T09:24:26.395Z,99602.60
2023-04-18T09:26:57.269Z,99605.80
2023-04-18T09:29:46.795Z,99604.00
2023-04-18T09:32:29.251Z,99597.80
2023-04-18T09:35:03.926Z,99598.00
2023-04-18T09:37:32.353Z,99603.80
2023-04-18T09:40:00.177Z,99598.00
2023-04-18T09:42:36.981Z,99594.60
2023-04-18T09:45:08.296Z,99595.60
2023-04-18T09:47:36.846Z,99599.80
2023-04-18T09:50:09.590Z,99597.60
2023-04-18T09:52:41.890Z,99601.80
2023-04-18T09:55:16.407Z,99595.80
2023-04-18T09:57:47.502Z,99598.40
2023-04-18T10:00:26.697Z,99591.40
2023-04-18T10:03:09.754Z,99591.20
2023-04-18T10:05:41.451Z,99593.40
2023-04-18T10:08:10.752Z,99591.00
2023-04-18T10:10:39.150Z,99588.60
2023-04-18T10:13:11.828Z,99584.00
2023-04-18T10:15:41.767Z,99587.60
2023-04-18T10:18:18.455Z,99587.40
2023-04-18T10:20:47.135Z,99582.80
2023-04-18T10:23:39.434Z,99586.60
2023-04-18T10:26:09.631Z,99578.40
2023-04-18T10:28:57.284Z,99572.80
2023-04-18T10:31:27.994Z,99565.00
2023-04-18T10:36:30.316Z,99561.20
2023-04-18T10:39:25.136Z,99558.80
2023-04-18T10:41:52.876Z,99566.20
2023-04-18T10:44:24.265Z,99557.00
2023-04-18T10:46:52.210Z,99556.60
2023-04-18T10:49:26.060Z,99554.00
2023-04-18T10:52:00.977Z,99551.20
2023-04-18T10:54:46.988Z,99546.20
2023-04-18T10:57:15.485Z,99543.60
2023-04-18T10:59:49.300Z,99539.60
2023-04-18T11:02:30.104Z,99546.40
2023-04-18T11:05:02.925Z,99543.00
2023-04-18T11:07:47.691Z,99540.80
2023-04-18T11:10:21.878Z,99535.00
2023-04-18T11:12:51.652Z,99530.20
2023-04-18T11:15:22.769Z,99526.60
2023-04-18T11:18:03.411Z,99523.60
2023-04-18T11:20:39.910Z,99519.40
2023-04-18T11:23:22.799Z,99524.80
2023-04-18T11:25:53.743Z,99519.20
2023-04-18T11:28:24.786Z,99522.80
2023-04-18T11:30:52.530Z,99528.00
2023-04-18T11:33:20.462Z,99518.60
2023-04-18T11:35:48.192Z,99522.80
2023-04-18T11:38:16.674Z,99523.80
2023-04-18T11:40:51.120Z,99509.60
2023-04-18T11:43:23.078Z,99516.60
2023-04-18T11:45:59.843Z,99518.60
2023-04-18T11:48:37.819Z,99507.40
2023-04-18T11:51:07.502Z,99510.40
2023-04-18T11:53:37.936Z,99509.20
2023-04-18T11:56:06.461Z,99519.80
2023-04-18T11:58:35.505Z,99519.60
2023-04-18T12:01:18.384Z,99509.00
2023-04-18T12:04:06.807Z,99504.40
2023-04-18T12:06:53.759Z,99511.00
2023-04-18T12:09:24.866Z,99514.60
2023-04-18T12:12:03.520Z,99505.80
2023-04-18T12:14:31.384Z,99508.20
2023-04-18T12:16:59.320Z,99510.40
2023-04-18T12:19:29.814Z,99499.40
2023-04-18T12:22:10.008Z,99505.60
2023-04-18T12:24:38.072Z,99510.80
2023-04-18T12:27:06.013Z,99508.20
2023-04-18T12:29:33.669Z,99509.80
2023-04-18T12:32:01.701Z,99510.20
2023-04-18T12:34:30.657Z,99512.20
2023-04-18T12:36:58.331Z,99508.60
2023-04-18T12:39:26.240Z,99505.80
2023-04-18T12:41:53.968Z,99498.60
2023-04-18T12:44:22.706Z,99500.00
2023-04-18T12:46:51.083Z,99498.20
2023-04-18T12:49:18.864Z,99494.60
2023-04-18T12:51:46.559Z,99501.80
2023-04-18T12:54:14.507Z,99493.00
2023-04-18T12:56:42.649Z,99494.80
2023-04-18T12:59:10.469Z,99498.40
2023-04-18T13:01:38.196Z,99494.80
2023-04-18T13:04:12.233Z,99503.60
2023-04-18T13:06:41.485Z,99498.80
2023-04-18T13:09:09.366Z,99501.60
2023-04-18T13:11:37.041Z,99493.20
2023-04-18T13:14:04.681Z,99494.20
2023-04-18T13:16:32.383Z,99491.20
2023-04-18T13:19:00.141Z,99489.60
2023-04-18T13:21:28.265Z,99491.20
2023-04-18T13:23:55.955Z,99482.00
2023-04-18T13:26:23.772Z,99495.20
2023-04-18T13:28:51.571Z,99495.80
2023-04-18T13:31:19.437Z,99488.60
2023-04-18T13:33:47.084Z,99478.80
2023-04-18T13:36:14.823Z,99475.60
2023-04-18T13:38:43.180Z,99476.20
2023-04-18T13:41:13.289Z,99483.80
2023-04-18T13:43:41.445Z,99491.00
2023-04-18T13:46:09.118Z,99495.00
2023-04-18T13:48:36.804Z,99502.00
2023-04-18T13:51:04.798Z,99496.40
2023-04-18T13:53:32.527Z,99503.80
2023-04-18T13:56:01.764Z,99498.60
2023-04-18T13:58:30.250Z,99494.20
2023-04-18T14:01:02.284Z,99496.40
2023-04-18T14:03:30.792Z,99503.00
2023-04-18T14:05:59.387Z,99497.20
2023-04-18T14:08:27.003Z,99499.80
2023-04-18T14:10:54.658Z,99505.20
2023-04-18T14:13:22.308Z,99503.60
2023-04-18T14:15:50.015Z,99505.80
2023-04-18T14:18:21.651Z,99504.40
2023-04-18T14:20:49.533Z,99501.00
2023-04-18T14:23:18.442Z,99500.40
2023-04-18T14:25:46.116Z,99499.20
2023-04-18T14:28:14.076Z,99505.80
2023-04-18T14:30:41.717Z,99500.40
2023-04-18T14:33:10.184Z,99496.20
2023-04-18T14:35:38.674Z,99503.20
2023-04-18T14:38:06.530Z,99494.40
2023-04-18T14:40:34.282Z,99498.00
2023-04-18T14:43:02.481Z,99494.80
2023-04-18T14:45:34.028Z,99488.20
2023-04-18T14:48:01.983Z,99486.40
2023-04-18T14:50:30.986Z,99494.40
2023-04-18T14:52:59.009Z,99493.00
2023-04-18T14:55:26.838Z,99491.60
2023-04-18T14:57:54.881Z,99491.60
2023-04-18T15:00:22.770Z,99491.80
2023-04-18T15:02:50.806Z,99489.00
2023-04-18T15:05:23.686Z,99485.40
2023-04-18T15:07:52.064Z,99488.80
2023-04-18T15:10:22.508Z,99486.80
2023-04-18T15:12:51.203Z,99488.20
2023-04-18T15:15:19.543Z,99495.80
2023-04-18T15:17:47.199Z,99494.00
2023-04-18T15:20:15.124Z,99492.80
2023-04-18T15:22:42.847Z,99500.80
2023-04-18T15:25:10.629Z,99501.80
2023-04-18T15:27:38.276Z,99510.60
2023-04-18T15:30:08.239Z,99514.40
2023-04-18T15:32:36.910Z,99511.40
2023-04-18T15:35:05.294Z,99521.20
2023-04-18T15:37:32.978Z,99519.80
2023-04-18T15:40:00.856Z,99520.20
2023-04-18T15:42:30.205Z,99529.20
2023-04-18T15:44:58.176Z,99535.20
2023-04-18T15:47:26.112Z,99531.00
2023-04-18T15:49:53.847Z,99533.00
2023-04-18T15:52:21.601Z,99530.80
2023-04-18T15:54:51.913Z,99534.00
2023-04-18T15:57:19.521Z,99536.60
2023-04-18T15:59:47.156Z,99527.00
2023-04-18T16:02:15.026Z,99534.80
2023-04-18T16:04:43.152Z,99534.80
2023-04-18T16:07:11.778Z,99528.60
2023-04-18T16:09:39.474Z,99530.60
2023-04-18T16:12:08.256Z,99531.60
2023-04-18T16:14:35.908Z,99528.60
2023-04-18T16:17:03.731Z,99525.00
2023-04-18T16:19:32.922Z,99525.40
2023-04-18T16:22:01.500Z,99524.60
2023-04-18T16:24:30.272Z,99522.40
2023-04-18T16:26:58.612Z,99529.60
2023-04-18T16:29:26.374Z,99526.00
2023-04-18T16:31:54.283Z,99531.00
2023-04-18T16:34:22.206Z,99528.60
2023-04-18T16:36:51.162Z,99527.60
2023-04-18T16:39:19.333Z,99528.20
2023-04-18T16:41:47.074Z,99528.60
2023-04-18T16:44:14.843Z,99525.40
2023-04-18T16:46:42.919Z,99529.40
2023-04-18T16:49:11.535Z,99533.40
2023-04-18T16:51:39.670Z,99536.00
2023-04-18T16:54:08.689Z,99537.20
2023-04-18T16:56:36.302Z,99534.80
2023-04-18T16:59:04.181Z,99535.40
2023-04-18T17:01:34.079Z,99531.40
2023-04-18T17:04:02.468Z,99536.40
2023-04-18T17:06:31.518Z,99535.00
2023-04-18T17:08:59.614Z,99533.60
2023-04-18T17:11:27.215Z,99538.00
2023-04-18T17:13:54.890Z,99534.80
2023-04-18T17:16:22.643Z,99537.80
2023-04-18T17:18:50.269Z,99543.60
2023-04-18T17:21:17.873Z,99544.60
2023-04-18T17:23:46.048Z,99542.40
2023-04-18T17:26:13.725Z,99540.40
2023-04-18T17:28:41.389Z,99538.40
2023-04-18T17:31:09.209Z,99538.80
2023-04-18T17:33:37.234Z,99547.40
2023-04-18T17:36:06.432Z,99546.80
2023-04-18T17:38:35.582Z,99544.80
2023-04-18T17:41:06.008Z,99548.20
2023-04-18T17:43:33.710Z,99541.20
2023-04-18T17:46:03.622Z,99543.80
2023-04-18T17:48:31.545Z,99548.40
2023-04-18T17:50:59.241Z,99539.80
2023-04-18T17:53:26.945Z,99544.20
2023-04-18T17:55:59.288Z,99541.40
2023-04-18T17:58:27.306Z,99544.60
2023-04-18T18:00:55.048Z,99545.20
2023-04-18T18:03:23.239Z,99543.80
2023-04-18T18:05:51.895Z,99545.40
2023-04-18T18:08:19.655Z,99546.00
2023-04-18T18:10:47.690Z,99541.40
2023-04-18T18:13:15.739Z,99545.40
2023-04-18T18:15:43.615Z,99545.60
2023-04-18T18:18:11.491Z,99550.20
2023-04-18T18:20:43.121Z,99542.80
2023-04-18T18:23:11.059Z,99549.00
2023-04-18T18:25:39.016Z,99543.20
2023-04-18T18:28:07.232Z,99547.20
2023-04-18T18:30:37.448Z,99546.40
2023-04-18T18:33:05.669Z,99546.80
2023-04-18T18:35:33.413Z,99547.00
2023-04-18T18:38:01.338Z,99547.00
2023-04-18T18:40:29.069Z,99547.80
2023-04-18T18:42:57.349Z,99547.60
2023-04-18T18:45:24.995Z,99545.60
2023-04-18T18:47:52.659Z,99546.20
2023-04-18T18:50:20.406Z,99541.40
2023-04-18T18:52:48.455Z,99544.20
2023-04-18T18:55:16.563Z,99542.40
2023-04-18T18:57:44.725Z,99542.00
2023-04-18T19:00:13.434Z,99541.00
2023-04-18T19:02:41.337Z,99537.40
2023-04-18T19:05:09.820Z,99537.20
2023-04-18T19:07:37.450Z,99536.40
2023-04-18T19:10:06.447Z,99535.60
2023-04-18T19:12:34.080Z,99534.80
2023-04-18T19:15:01.828Z,99535.80
2023-04-18T19:17:31.066Z,99534.60
2023-04-18T19:20:01.221Z,99530.40
2023-04-18T19:22:30.546Z,99530.80
2023-04-18T19:25:00.477Z,99530.00
2023-04-18T19:27:28.238Z,99528.20
2023-04-18T19:29:55.915Z,99528.40
2023-04-18T19:32:23.601Z,99524.20
2023-04-18T19:34:51.504Z,99521.60
2023-04-18T19:37:19.228Z,99515.40
2023-04-18T19:39:46.941Z,99515.80
2023-04-18T19:42:14.798Z,99518.80
2023-04-18T19:44:42.520Z,99516.40
2023-04-18T19:47:10.246Z,99518.40
2023-04-18T19:49:38.096Z,99516.00
2023-04-18T19:52:06.432Z,99512.40
2023-04-18T19:54:34.051Z,99512.20
2023-04-18T19:57:02.481Z,99513.40
2023-04-18T19:59:30.148Z,99512.00
2023-04-18T20:02:00.278Z,99509.00
2023-04-18T20:04:31.579Z,99510.20
2023-04-18T20:06:59.591Z,99512.80
2023-04-18T20:09:27.240Z,99510.00
2023-04-18T20:11:55.172Z,99514.40
2023-04-18T20:14:22.953Z,99509.60
2023-04-18T20:16:50.916Z,99506.20
2023-04-18T20:19:19.572Z,99506.60
2023-04-18T20:21:47.216Z,99505.40
2023-04-18T20:24:15.689Z,99500.80
2023-04-18T20:26:43.374Z,99498.60
2023-04-18T20:29:11.267Z,99501.20
2023-04-18T20:31:42.162Z,99498.00
2023-04-18T20:34:10.158Z,99501.80
2023-04-18T20:36:41.534Z,99496.00
2023-04-18T20:39:09.361Z,99496.40
2023-04-18T20:41:36.977Z,99498.80
2023-04-18T20:44:10.044Z,99491.20
2023-04-18T20:46:37.768Z,99493.20
2023-04-18T20:49:07.879Z,99495.20
2023-04-18T20:51:37.077Z,99484.60
2023-04-18T20:54:05.677Z,99486.80
2023-04-18T20:56:33.941Z,99488.40
2023-04-18T20:59:01.967Z,99484.20
2023-04-18T21:01:29.652Z,99478.40
2023-04-18T21:03:57.831Z,99478.00
2023-04-18T21:06:25.627Z,99480.00
2023-04-18T21:08:53.206Z,99474.20
2023-04-18T21:11:20.866Z,99471.80
2023-04-18T21:13:48.494Z,99468.80
2023-04-18T21:16:16.234Z,99467.00
2023-04-18T21:18:43.892Z,99465.60
2023-04-18T21:21:11.866Z,99464.60
2023-04-18T21:23:44.230Z,99459.40
2023-04-18T21:26:13.658Z,99458.40
2023-04-18T21:28:59.696Z,99453.00
2023-04-18T21:31:30.745Z,99455.20
2023-04-18T21:34:01.352Z,99455.40
2023-04-18T21:36:31.035Z,99454.00
2023-04-18T21:39:01.192Z,99451.60
2023-04-18T21:41:29.011Z,99448.60
2023-04-18T21:43:56.714Z,99450.00
2023-04-18T21:46:25.536Z,99447.80
2023-04-18T21:48:53.366Z,99449.60
2023-04-18T21:51:21.052Z,99444.20
2023-04-18T21:53:48.715Z,99444.60
2023-04-18T21:56:16.886Z,99443.60
2023-04-18T21:58:44.656Z,99440.80
2023-04-18T22:01:12.609Z,99434.00
2023-04-18T22:03:40.502Z,99434.00
2023-04-18T22:06:08.337Z,99432.20
2023-04-18T22:08:36.117Z,99426.80
2023-04-18T22:11:04.862Z,99425.80
2023-04-18T22:13:35.746Z,99421.40
2023-04-18T22:16:03.817Z,99420.60
2023-04-18T22:18:34.558Z,99421.80
2023-04-18T22:21:03.432Z,99416.20
2023-04-18T22:23:31.508Z,99412.20
2023-04-18T22:25:59.333Z,99409.80
2023-04-18T22:28:30.400Z,99411.00
2023-04-18T22:30:58.185Z,99413.60
2023-04-18T22:33:25.992Z,99413.00
2023-04-18T22:35:54.356Z,99407.00
2023-04-18T22:38:22.115Z,99405.40
2023-04-18T22:40:49.720Z,99401.60
2023-04-18T22:43:22.523Z,99398.00
2023-04-18T22:45:51.562Z,99397.20
2023-04-18T22:48:19.344Z,99393.80
2023-04-18T22:50:47.404Z,99383.20
2023-04-18T22:53:16.114Z,99385.20
2023-04-18T22:55:45.545Z,99377.60
2023-04-18T22:58:13.709Z,99375.40
2023-04-18T23:00:41.429Z,99372.00
2023-04-18T23:03:09.366Z,99369.80
2023-04-18T23:05:37.284Z,99366.60
2023-04-18T23:08:06.926Z,99367.20
2023-04-18T23:10:34.986Z,99363.00
2023-04-18T23:13:02.734Z,99362.80
2023-04-18T23:15:30.513Z,99359.60
2023-04-18T23:17:58.183Z,99352.80
2023-04-18T23:20:25.856Z,99357.00
2023-04-18T23:22:55.370Z,99350.40
2023-04-18T23:25:23.072Z,99345.20
2023-04-18T23:27:50.728Z,99339.80
2023-04-18T23:30:18.380Z,99333.00
2023-04-18T23:32:46.054Z,99330.40
2023-04-18T23:35:13.740Z,99330.60
2023-04-18T23:37:42.257Z,99328.40
2023-04-18T23:40:09.945Z,99326.40
2023-04-18T23:42:37.836Z,99328.20
2023-04-18T23:45:06.531Z,99322.00
2023-04-18T23:47:34.235Z,99319.20
2023-04-18T23:50:02.391Z,99317.60
2023-04-18T23:52:30.180Z,99312.00
2023-04-18T23:55:01.859Z,99306.80
2023-04-18T23:57:29.859Z,99302.20
2023-04-18T23:59:57.562Z,99307.60
